sensor_id;sensor_type;location;lat;lon;timestamp;pressure;altitude;pressure_sealevel;temperature;humidity
10014;BME280;45684;48.358;10.746;2022-09-09T00:02:19;95984.44;;;12.85;100.00
10014;BME280;45684;48.358;10.746;2022-09-09T00:04:54;95976.66;;;12.83;100.00
10014;BME280;45684;48.358;10.746;2022-09-09T00:07:34;95980.72;;;12.89;100.00
10014;BME280;45684;48.358;10.746;2022-09-09T00:10:15;95977.09;;;12.85;100.00
10014;BME280;45684;48.358;10.746;2022-09-09T00:12:53;95987.50;;;12.83;100.00
10014;BME280;45684;48.358;10.746;2022-09-09T00:15:25;95984.88;;;12.87;100.00
10014;BME280;45684;48.358;10.746;2022-09-09T00:17:59;95987.16;;;12.85;100.00
10014;BME280;45684;48.358;10.746;2022-09-09T00:20:32;95984.72;;;12.92;100.00
10014;BME280;45684;48.358;10.746;2022-09-09T00:23:12;95976.56;;;12.92;100.00
10014;BME280;45684;48.358;10.746;2022-09-09T00:25:48;95984.88;;;12.74;100.00
10014;BME280;45684;48.358;10.746;2022-09-09T00:28:22;95978.53;;;12.70;100.00
10014;BME280;45684;48.358;10.746;2022-09-09T00:30:50;95981.69;;;12.72;100.00
10014;BME280;45684;48.358;10.746;2022-09-09T00:33:20;95980.56;;;12.73;100.00
10014;BME280;45684;48.358;10.746;2022-09-09T00:35:50;95978.75;;;12.77;100.00
10014;BME280;45684;48.358;10.746;2022-09-09T00:38:22;95980.94;;;12.84;100.00
10014;BME280;45684;48.358;10.746;2022-09-09T00:40:58;95978.56;;;12.83;100.00
10014;BME280;45684;48.358;10.746;2022-09-09T00:43:29;95979.22;;;12.80;100.00
10014;BME280;45684;48.358;10.746;2022-09-09T00:46:24;95971.31;;;12.87;100.00
10014;BME280;45684;48.358;10.746;2022-09-09T00:49:04;95983.78;;;12.88;100.00
10014;BME280;45684;48.358;10.746;2022-09-09T00:51:52;95979.94;;;12.89;100.00
10014;BME280;45684;48.358;10.746;2022-09-09T00:54:29;95970.88;;;12.85;100.00
10014;BME280;45684;48.358;10.746;2022-09-09T00:57:13;95966.09;;;12.82;100.00
10014;BME280;45684;48.358;10.746;2022-09-09T00:59:47;95970.63;;;12.77;100.00
10014;BME280;45684;48.358;10.746;2022-09-09T01:02:25;95979.56;;;12.78;100.00
10014;BME280;45684;48.358;10.746;2022-09-09T01:05:00;95977.31;;;12.80;100.00
10014;BME280;45684;48.358;10.746;2022-09-09T01:07:32;95975.38;;;12.81;100.00
10014;BME280;45684;48.358;10.746;2022-09-09T01:10:03;95975.50;;;12.84;100.00
10014;BME280;45684;48.358;10.746;2022-09-09T01:12:40;95977.09;;;12.85;100.00
10014;BME280;45684;48.358;10.746;2022-09-09T01:15:19;95977.22;;;12.89;100.00
10014;BME280;45684;48.358;10.746;2022-09-09T01:17:56;95968.06;;;12.93;100.00
10014;BME280;45684;48.358;10.746;2022-09-09T01:20:28;95952.72;;;12.97;100.00
10014;BME280;45684;48.358;10.746;2022-09-09T01:23:16;95962.66;;;12.93;100.00
10014;BME280;45684;48.358;10.746;2022-09-09T01:26:11;95952.56;;;12.94;100.00
10014;BME280;45684;48.358;10.746;2022-09-09T01:28:47;95953.03;;;12.96;100.00
10014;BME280;45684;48.358;10.746;2022-09-09T01:31:19;95961.59;;;12.86;100.00
10014;BME280;45684;48.358;10.746;2022-09-09T01:33:48;95961.59;;;12.86;100.00
10014;BME280;45684;48.358;10.746;2022-09-09T01:36:22;95955.38;;;12.85;100.00
10014;BME280;45684;48.358;10.746;2022-09-09T01:38:52;95953.00;;;12.84;100.00
10014;BME280;45684;48.358;10.746;2022-09-09T01:41:21;95959.69;;;12.86;100.00
10014;BME280;45684;48.358;10.746;2022-09-09T01:44:01;95962.53;;;12.90;100.00
10014;BME280;45684;48.358;10.746;2022-09-09T01:46:32;95952.88;;;12.80;100.00
10014;BME280;45684;48.358;10.746;2022-09-09T01:49:02;95955.69;;;12.71;100.00
10014;BME280;45684;48.358;10.746;2022-09-09T01:51:31;95955.03;;;12.74;100.00
10014;BME280;45684;48.358;10.746;2022-09-09T01:54:03;95953.66;;;12.68;100.00
10014;BME280;45684;48.358;10.746;2022-09-09T01:56:40;95951.25;;;12.67;100.00
10014;BME280;45684;48.358;10.746;2022-09-09T01:59:35;95949.34;;;12.67;100.00
10014;BME280;45684;48.358;10.746;2022-09-09T02:02:11;95949.34;;;12.67;100.00
10014;BME280;45684;48.358;10.746;2022-09-09T02:04:49;95945.25;;;12.61;100.00
10014;BME280;45684;48.358;10.746;2022-09-09T02:07:31;95944.91;;;12.63;100.00
10014;BME280;45684;48.358;10.746;2022-09-09T02:10:10;95943.69;;;12.60;100.00
10014;BME280;45684;48.358;10.746;2022-09-09T02:12:50;95948.84;;;12.53;100.00
10014;BME280;45684;48.358;10.746;2022-09-09T02:15:24;95938.06;;;12.44;100.00
10014;BME280;45684;48.358;10.746;2022-09-09T02:17:55;95937.75;;;12.46;100.00
10014;BME280;45684;48.358;10.746;2022-09-09T02:20:26;95932.34;;;12.46;100.00
10014;BME280;45684;48.358;10.746;2022-09-09T02:23:00;95924.50;;;12.44;100.00
10014;BME280;45684;48.358;10.746;2022-09-09T02:25:29;95929.72;;;12.49;100.00
10014;BME280;45684;48.358;10.746;2022-09-09T02:28:07;95931.66;;;12.49;100.00
10014;BME280;45684;48.358;10.746;2022-09-09T02:30:38;95924.19;;;12.46;100.00
10014;BME280;45684;48.358;10.746;2022-09-09T02:33:09;95923.72;;;12.44;100.00
10014;BME280;45684;48.358;10.746;2022-09-09T02:35:44;95917.38;;;12.40;100.00
10014;BME280;45684;48.358;10.746;2022-09-09T02:38:16;95914.78;;;12.43;100.00
10014;BME280;45684;48.358;10.746;2022-09-09T02:40:55;95910.94;;;12.44;100.00
10014;BME280;45684;48.358;10.746;2022-09-09T02:43:24;95913.88;;;12.39;100.00
10014;BME280;45684;48.358;10.746;2022-09-09T02:45:56;95916.72;;;12.43;100.00
10014;BME280;45684;48.358;10.746;2022-09-09T02:48:31;95914.78;;;12.43;100.00
10014;BME280;45684;48.358;10.746;2022-09-09T02:51:07;95914.22;;;12.38;100.00
10014;BME280;45684;48.358;10.746;2022-09-09T02:53:41;95914.88;;;12.35;100.00
10014;BME280;45684;48.358;10.746;2022-09-09T02:56:14;95927.19;;;12.32;100.00
10014;BME280;45684;48.358;10.746;2022-09-09T02:58:47;95917.00;;;12.29;100.00
10014;BME280;45684;48.358;10.746;2022-09-09T03:01:15;95919.50;;;12.34;100.00
10014;BME280;45684;48.358;10.746;2022-09-09T03:03:44;95924.16;;;12.34;100.00
10014;BME280;45684;48.358;10.746;2022-09-09T03:06:15;95922.78;;;12.28;100.00
10014;BME280;45684;48.358;10.746;2022-09-09T03:08:47;95924.00;;;12.30;100.00
10014;BME280;45684;48.358;10.746;2022-09-09T03:11:21;95928.72;;;12.21;100.00
10014;BME280;45684;48.358;10.746;2022-09-09T03:13:50;95927.47;;;12.18;100.00
10014;BME280;45684;48.358;10.746;2022-09-09T03:16:19;95928.13;;;12.15;100.00
10014;BME280;45684;48.358;10.746;2022-09-09T03:18:50;95926.28;;;12.07;100.00
10014;BME280;45684;48.358;10.746;2022-09-09T03:21:19;95925.63;;;12.10;100.00
10014;BME280;45684;48.358;10.746;2022-09-09T03:23:48;95930.25;;;12.10;100.00
10014;BME280;45684;48.358;10.746;2022-09-09T03:26:15;95926.16;;;12.04;100.00
10014;BME280;45684;48.358;10.746;2022-09-09T03:28:45;95929.66;;;12.04;100.00
10014;BME280;45684;48.358;10.746;2022-09-09T03:31:18;95937.59;;;12.09;100.00
10014;BME280;45684;48.358;10.746;2022-09-09T03:33:46;95931.44;;;12.00;100.00
10014;BME280;45684;48.358;10.746;2022-09-09T03:36:16;95929.88;;;11.99;100.00
10014;BME280;45684;48.358;10.746;2022-09-09T03:38:44;95929.88;;;11.99;100.00
10014;BME280;45684;48.358;10.746;2022-09-09T03:41:12;95931.44;;;12.00;100.00
10014;BME280;45684;48.358;10.746;2022-09-09T03:43:40;95927.34;;;11.94;100.00
10014;BME280;45684;48.358;10.746;2022-09-09T03:46:08;95935.00;;;11.92;100.00
10014;BME280;45684;48.358;10.746;2022-09-09T03:48:37;95919.34;;;11.97;100.00
10014;BME280;45684;48.358;10.746;2022-09-09T03:51:05;95913.13;;;11.97;100.00
10014;BME280;45684;48.358;10.746;2022-09-09T03:53:34;95913.47;;;11.95;100.00
10014;BME280;45684;48.358;10.746;2022-09-09T03:56:02;95915.25;;;11.91;100.00
10014;BME280;45684;48.358;10.746;2022-09-09T03:58:30;95906.34;;;11.91;100.00
10014;BME280;45684;48.358;10.746;2022-09-09T04:01:07;95905.41;;;11.87;100.00
10014;BME280;45684;48.358;10.746;2022-09-09T04:03:38;95901.56;;;11.88;100.00
10014;BME280;45684;48.358;10.746;2022-09-09T04:06:08;95903.63;;;11.91;100.00
10014;BME280;45684;48.358;10.746;2022-09-09T04:08:38;95908.06;;;11.95;100.00
10014;BME280;45684;48.358;10.746;2022-09-09T04:11:07;95900.91;;;11.91;100.00
10014;BME280;45684;48.358;10.746;2022-09-09T04:13:37;95908.56;;;11.89;100.00
10014;BME280;45684;48.358;10.746;2022-09-09T04:16:09;95903.41;;;11.96;100.00
10014;BME280;45684;48.358;10.746;2022-09-09T04:18:39;95897.88;;;11.92;100.00
10014;BME280;45684;48.358;10.746;2022-09-09T04:21:08;95904.41;;;11.91;100.00
10014;BME280;45684;48.358;10.746;2022-09-09T04:23:36;95916.84;;;11.92;100.00
10014;BME280;45684;48.358;10.746;2022-09-09T04:26:04;95911.88;;;11.94;100.00
10014;BME280;45684;48.358;10.746;2022-09-09T04:28:35;95909.97;;;11.95;100.00
10014;BME280;45684;48.358;10.746;2022-09-09T04:31:15;95908.84;;;11.96;100.00
10014;BME280;45684;48.358;10.746;2022-09-09T04:33:46;95914.72;;;11.98;100.00
10014;BME280;45684;48.358;10.746;2022-09-09T04:36:15;95907.06;;;12.00;100.00
10014;BME280;45684;48.358;10.746;2022-09-09T04:38:44;95912.28;;;12.05;100.00
10014;BME280;45684;48.358;10.746;2022-09-09T04:41:13;95908.72;;;12.13;100.00
10014;BME280;45684;48.358;10.746;2022-09-09T04:43:43;95905.09;;;12.21;100.00
10014;BME280;45684;48.358;10.746;2022-09-09T04:46:12;95903.09;;;12.31;100.00
10014;BME280;45684;48.358;10.746;2022-09-09T04:48:43;95908.34;;;12.36;100.00
10014;BME280;45684;48.358;10.746;2022-09-09T04:51:13;95906.03;;;12.25;100.00
10014;BME280;45684;48.358;10.746;2022-09-09T04:53:43;95902.53;;;12.25;100.00
10014;BME280;45684;48.358;10.746;2022-09-09T04:56:13;95900.03;;;12.20;100.00
10014;BME280;45684;48.358;10.746;2022-09-09T04:58:48;95904.31;;;12.21;100.00
10014;BME280;45684;48.358;10.746;2022-09-09T05:01:17;95904.66;;;12.19;100.00
10014;BME280;45684;48.358;10.746;2022-09-09T05:03:47;95915.28;;;12.24;100.00
10014;BME280;45684;48.358;10.746;2022-09-09T05:06:21;95926.28;;;12.28;100.00
10014;BME280;45684;48.358;10.746;2022-09-09T05:08:54;95941.53;;;12.33;100.00
10014;BME280;45684;48.358;10.746;2022-09-09T05:11:26;95934.00;;;12.38;100.00
10014;BME280;45684;48.358;10.746;2022-09-09T05:14:01;95934.91;;;12.42;100.00
10014;BME280;45684;48.358;10.746;2022-09-09T05:16:31;95940.91;;;12.48;100.00
10014;BME280;45684;48.358;10.746;2022-09-09T05:18:59;95957.47;;;12.55;100.00
10014;BME280;45684;48.358;10.746;2022-09-09T05:21:36;95943.19;;;12.58;100.00
10014;BME280;45684;48.358;10.746;2022-09-09T05:24:05;95945.38;;;12.65;100.00
10014;BME280;45684;48.358;10.746;2022-09-09T05:26:33;95955.81;;;12.75;100.00
10014;BME280;45684;48.358;10.746;2022-09-09T05:29:02;95961.81;;;12.81;100.00
10014;BME280;45684;48.358;10.746;2022-09-09T05:31:30;95978.00;;;12.89;100.00
10014;BME280;45684;48.358;10.746;2022-09-09T05:34:02;95980.16;;;12.96;100.00
10014;BME280;45684;48.358;10.746;2022-09-09T05:36:30;95983.91;;;13.03;100.00
10014;BME280;45684;48.358;10.746;2022-09-09T05:39:00;95990.72;;;13.10;100.00
10014;BME280;45684;48.358;10.746;2022-09-09T05:41:30;95980.56;;;13.19;100.00
10014;BME280;45684;48.358;10.746;2022-09-09T05:44:01;95986.38;;;13.30;100.00
10014;BME280;45684;48.358;10.746;2022-09-09T05:46:34;95993.16;;;13.36;100.00
10014;BME280;45684;48.358;10.746;2022-09-09T05:49:02;95992.28;;;13.44;100.00
10014;BME280;45684;48.358;10.746;2022-09-09T05:51:35;95986.28;;;13.50;100.00
10014;BME280;45684;48.358;10.746;2022-09-09T05:54:09;95993.41;;;13.55;100.00
10014;BME280;45684;48.358;10.746;2022-09-09T05:56:41;95989.56;;;13.56;100.00
10014;BME280;45684;48.358;10.746;2022-09-09T05:59:14;96001.56;;;13.55;100.00
10014;BME280;45684;48.358;10.746;2022-09-09T06:01:42;95997.81;;;13.60;100.00
10014;BME280;45684;48.358;10.746;2022-09-09T06:04:19;95992.16;;;13.65;100.00
10014;BME280;45684;48.358;10.746;2022-09-09T06:06:51;95995.66;;;13.65;100.00
10014;BME280;45684;48.358;10.746;2022-09-09T06:09:22;95985.72;;;13.69;100.00
10014;BME280;45684;48.358;10.746;2022-09-09T06:11:50;95986.97;;;13.72;100.00
10014;BME280;45684;48.358;10.746;2022-09-09T06:14:19;96007.56;;;13.73;100.00
10014;BME280;45684;48.358;10.746;2022-09-09T06:16:49;95999.75;;;13.71;100.00
10014;BME280;45684;48.358;10.746;2022-09-09T06:19:21;95992.50;;;13.75;100.00
10014;BME280;45684;48.358;10.746;2022-09-09T06:21:49;95995.69;;;13.77;100.00
10014;BME280;45684;48.358;10.746;2022-09-09T06:24:17;95999.53;;;13.76;100.00
10014;BME280;45684;48.358;10.746;2022-09-09T06:26:47;95997.38;;;13.82;100.00
10014;BME280;45684;48.358;10.746;2022-09-09T06:29:20;95989.34;;;13.86;100.00
10014;BME280;45684;48.358;10.746;2022-09-09T06:31:50;95995.31;;;13.91;100.00
10014;BME280;45684;48.358;10.746;2022-09-09T06:34:21;95985.78;;;13.97;100.00
10014;BME280;45684;48.358;10.746;2022-09-09T06:36:56;95981.81;;;14.07;100.00
10014;BME280;45684;48.358;10.746;2022-09-09T06:39:29;95982.94;;;14.18;100.00
10014;BME280;45684;48.358;10.746;2022-09-09T06:41:58;95979.19;;;14.23;100.00
10014;BME280;45684;48.358;10.746;2022-09-09T06:44:49;95976.78;;;14.21;100.00
10014;BME280;45684;48.358;10.746;2022-09-09T06:47:27;95970.06;;;14.31;100.00
10014;BME280;45684;48.358;10.746;2022-09-09T06:49:57;95972.66;;;14.40;100.00
10014;BME280;45684;48.358;10.746;2022-09-09T06:52:25;95951.56;;;14.49;100.00
10014;BME280;45684;48.358;10.746;2022-09-09T06:54:54;95970.47;;;14.58;100.00
10014;BME280;45684;48.358;10.746;2022-09-09T06:57:26;95983.41;;;14.61;100.00
10014;BME280;45684;48.358;10.746;2022-09-09T07:00:06;95996.66;;;14.62;100.00
10014;BME280;45684;48.358;10.746;2022-09-09T07:02:34;95995.25;;;14.68;100.00
10014;BME280;45684;48.358;10.746;2022-09-09T07:05:07;96001.59;;;14.72;100.00
10014;BME280;45684;48.358;10.746;2022-09-09T07:07:35;96003.00;;;14.66;100.00
10014;BME280;45684;48.358;10.746;2022-09-09T07:10:05;96000.00;;;14.71;100.00
10014;BME280;45684;48.358;10.746;2022-09-09T07:12:36;96010.78;;;14.68;100.00
10014;BME280;45684;48.358;10.746;2022-09-09T07:15:08;96007.50;;;14.74;100.00
10014;BME280;45684;48.358;10.746;2022-09-09T07:17:40;96008.38;;;14.78;100.00
10014;BME280;45684;48.358;10.746;2022-09-09T07:20:08;96018.06;;;14.92;100.00
10014;BME280;45684;48.358;10.746;2022-09-09T07:22:36;96010.53;;;15.01;100.00
10014;BME280;45684;48.358;10.746;2022-09-09T07:25:05;96011.09;;;15.07;100.00
10014;BME280;45684;48.358;10.746;2022-09-09T07:27:33;96017.50;;;15.14;100.00
10014;BME280;45684;48.358;10.746;2022-09-09T07:30:03;96016.81;;;15.17;100.00
10014;BME280;45684;48.358;10.746;2022-09-09T07:32:32;96007.13;;;15.20;100.00
10014;BME280;45684;48.358;10.746;2022-09-09T07:35:00;96013.03;;;15.22;100.00
10014;BME280;45684;48.358;10.746;2022-09-09T07:37:28;96021.81;;;15.15;100.00
10014;BME280;45684;48.358;10.746;2022-09-09T07:39:56;96026.72;;;15.10;100.00
10014;BME280;45684;48.358;10.746;2022-09-09T07:42:25;96019.00;;;15.12;100.00
10014;BME280;45684;48.358;10.746;2022-09-09T07:44:53;96024.53;;;15.15;100.00
10014;BME280;45684;48.358;10.746;2022-09-09T07:47:22;96018.38;;;15.18;100.00
10014;BME280;45684;48.358;10.746;2022-09-09T07:49:51;96003.72;;;15.23;100.00
10014;BME280;45684;48.358;10.746;2022-09-09T07:52:24;96007.06;;;15.32;100.00
10014;BME280;45684;48.358;10.746;2022-09-09T07:54:55;96023.00;;;15.30;100.00
10014;BME280;45684;48.358;10.746;2022-09-09T07:57:23;96024.22;;;15.32;100.00
10014;BME280;45684;48.358;10.746;2022-09-09T07:59:52;96014.28;;;15.40;100.00
10014;BME280;45684;48.358;10.746;2022-09-09T08:02:22;96022.47;;;15.56;100.00
10014;BME280;45684;48.358;10.746;2022-09-09T08:04:51;96023.56;;;15.67;100.00
10014;BME280;45684;48.358;10.746;2022-09-09T08:07:20;96018.44;;;15.81;100.00
10014;BME280;45684;48.358;10.746;2022-09-09T08:09:52;96019.47;;;15.93;100.00
10014;BME280;45684;48.358;10.746;2022-09-09T08:12:25;96028.69;;;16.04;100.00
10014;BME280;45684;48.358;10.746;2022-09-09T08:14:53;96031.41;;;16.04;100.00
10014;BME280;45684;48.358;10.746;2022-09-09T08:17:25;96028.00;;;16.07;100.00
10014;BME280;45684;48.358;10.746;2022-09-09T08:19:53;96038.63;;;16.12;100.00
10014;BME280;45684;48.358;10.746;2022-09-09T08:22:25;96038.00;;;16.19;100.00
10014;BME280;45684;48.358;10.746;2022-09-09T08:24:54;96036.75;;;16.32;100.00
10014;BME280;45684;48.358;10.746;2022-09-09T08:27:22;96028.13;;;16.49;100.00
10014;BME280;45684;48.358;10.746;2022-09-09T08:29:51;96035.44;;;16.61;100.00
10014;BME280;45684;48.358;10.746;2022-09-09T08:32:19;96024.38;;;16.73;100.00
10014;BME280;45684;48.358;10.746;2022-09-09T08:34:49;96024.53;;;16.80;100.00
10014;BME280;45684;48.358;10.746;2022-09-09T08:37:21;96029.78;;;16.89;100.00
10014;BME280;45684;48.358;10.746;2022-09-09T08:39:49;96040.19;;;17.03;100.00
10014;BME280;45684;48.358;10.746;2022-09-09T08:42:31;96035.91;;;17.25;100.00
10014;BME280;45684;48.358;10.746;2022-09-09T08:45:14;96043.00;;;17.49;100.00
10014;BME280;45684;48.358;10.746;2022-09-09T08:47:54;96047.06;;;17.58;100.00
10014;BME280;45684;48.358;10.746;2022-09-09T08:50:30;96049.53;;;17.67;100.00
10014;BME280;45684;48.358;10.746;2022-09-09T08:53:15;96041.66;;;17.85;100.00
10014;BME280;45684;48.358;10.746;2022-09-09T08:55:46;96040.78;;;18.04;100.00
10014;BME280;45684;48.358;10.746;2022-09-09T08:58:21;96036.53;;;18.06;100.00
10014;BME280;45684;48.358;10.746;2022-09-09T09:01:05;96049.22;;;18.18;100.00
10014;BME280;45684;48.358;10.746;2022-09-09T09:03:53;96040.88;;;18.34;100.00
10014;BME280;45684;48.358;10.746;2022-09-09T09:06:36;96050.19;;;18.56;100.00
10014;BME280;45684;48.358;10.746;2022-09-09T09:09:17;96047.13;;;18.61;100.00
10014;BME280;45684;48.358;10.746;2022-09-09T09:11:51;96046.53;;;18.75;100.00
10014;BME280;45684;48.358;10.746;2022-09-09T09:14:23;96049.88;;;18.91;100.00
10014;BME280;45684;48.358;10.746;2022-09-09T09:16:59;96053.78;;;18.90;100.00
10014;BME280;45684;48.358;10.746;2022-09-09T09:19:28;96057.69;;;18.93;100.00
10014;BME280;45684;48.358;10.746;2022-09-09T09:22:03;96052.56;;;18.88;100.00
10014;BME280;45684;48.358;10.746;2022-09-09T09:24:40;96058.47;;;18.90;100.00
10014;BME280;45684;48.358;10.746;2022-09-09T09:27:13;96059.66;;;18.92;100.00
10014;BME280;45684;48.358;10.746;2022-09-09T09:29:47;96058.50;;;18.93;100.00
10014;BME280;45684;48.358;10.746;2022-09-09T09:32:39;96053.50;;;18.99;100.00
10014;BME280;45684;48.358;10.746;2022-09-09T09:35:11;96049.28;;;19.08;100.00
10014;BME280;45684;48.358;10.746;2022-09-09T09:37:42;96054.50;;;19.17;100.00
10014;BME280;45684;48.358;10.746;2022-09-09T09:40:33;96054.88;;;19.19;100.00
10014;BME280;45684;48.358;10.746;2022-09-09T09:43:01;96047.88;;;19.22;100.00
10014;BME280;45684;48.358;10.746;2022-09-09T09:45:40;96053.47;;;19.32;100.00
10014;BME280;45684;48.358;10.746;2022-09-09T09:48:27;96045.78;;;19.49;100.00
10014;BME280;45684;48.358;10.746;2022-09-09T09:50:56;96059.63;;;19.59;100.00
10014;BME280;45684;48.358;10.746;2022-09-09T09:53:29;96060.72;;;19.51;100.00
10014;BME280;45684;48.358;10.746;2022-09-09T09:55:59;96058.84;;;19.59;100.00
10014;BME280;45684;48.358;10.746;2022-09-09T09:58:31;96054.31;;;19.74;100.00
10014;BME280;45684;48.358;10.746;2022-09-09T10:01:01;96049.25;;;19.79;100.00
10014;BME280;45684;48.358;10.746;2022-09-09T10:03:30;96062.59;;;19.81;100.00
10014;BME280;45684;48.358;10.746;2022-09-09T10:06:00;96052.50;;;19.96;100.00
10014;BME280;45684;48.358;10.746;2022-09-09T10:08:33;96061.06;;;20.35;100.00
10014;BME280;45684;48.358;10.746;2022-09-09T10:11:14;96060.78;;;20.51;100.00
10014;BME280;45684;48.358;10.746;2022-09-09T10:13:52;96064.84;;;20.71;100.00
10014;BME280;45684;48.358;10.746;2022-09-09T10:16:40;96062.94;;;20.86;100.00
10014;BME280;45684;48.358;10.746;2022-09-09T10:19:16;96062.53;;;20.80;100.00
10014;BME280;45684;48.358;10.746;2022-09-09T10:22:04;96058.63;;;20.81;100.00
10014;BME280;45684;48.358;10.746;2022-09-09T10:25:01;96066.38;;;20.69;100.00
10014;BME280;45684;48.358;10.746;2022-09-09T10:27:38;96051.41;;;20.59;100.00
10014;BME280;45684;48.358;10.746;2022-09-09T10:30:14;96048.34;;;20.71;100.00
10014;BME280;45684;48.358;10.746;2022-09-09T10:33:00;96058.16;;;20.72;100.00
10014;BME280;45684;48.358;10.746;2022-09-09T10:35:34;96056.22;;;20.73;100.00
10014;BME280;45684;48.358;10.746;2022-09-09T10:38:15;96061.66;;;20.62;100.00
10014;BME280;45684;48.358;10.746;2022-09-09T10:40:59;96049.84;;;20.58;100.00
10014;BME280;45684;48.358;10.746;2022-09-09T10:43:48;96054.16;;;20.59;100.00
10014;BME280;45684;48.358;10.746;2022-09-09T10:46:28;96056.28;;;20.28;100.00
10014;BME280;45684;48.358;10.746;2022-09-09T10:49:09;96045.72;;;20.30;100.00
10014;BME280;45684;48.358;10.746;2022-09-09T10:51:55;96051.19;;;20.27;100.00
10014;BME280;45684;48.358;10.746;2022-09-09T10:54:38;96057.56;;;20.42;100.00
10014;BME280;45684;48.358;10.746;2022-09-09T10:57:14;96059.72;;;20.66;100.00
10014;BME280;45684;48.358;10.746;2022-09-09T10:59:46;96057.06;;;20.87;100.00
10014;BME280;45684;48.358;10.746;2022-09-09T11:02:18;96046.56;;;21.14;100.00
10014;BME280;45684;48.358;10.746;2022-09-09T11:04:53;96055.78;;;21.79;100.00
10014;BME280;45684;48.358;10.746;2022-09-09T11:07:28;96057.38;;;22.45;95.01
10014;BME280;45684;48.358;10.746;2022-09-09T11:10:01;96067.50;;;22.98;91.77
10014;BME280;45684;48.358;10.746;2022-09-09T11:12:36;96064.94;;;23.42;90.91
10014;BME280;45684;48.358;10.746;2022-09-09T11:15:15;96056.16;;;23.69;85.90
10014;BME280;45684;48.358;10.746;2022-09-09T11:17:47;96049.59;;;24.01;86.25
10014;BME280;45684;48.358;10.746;2022-09-09T11:20:16;96046.56;;;23.88;81.00
10014;BME280;45684;48.358;10.746;2022-09-09T11:22:48;96049.94;;;23.47;79.73
10014;BME280;45684;48.358;10.746;2022-09-09T11:25:21;96044.50;;;23.29;83.37
10014;BME280;45684;48.358;10.746;2022-09-09T11:28:03;96045.34;;;23.19;87.79
10014;BME280;45684;48.358;10.746;2022-09-09T11:30:46;96040.34;;;22.92;86.65
10014;BME280;45684;48.358;10.746;2022-09-09T11:33:49;96036.84;;;22.60;88.15
10014;BME280;45684;48.358;10.746;2022-09-09T11:39:53;96036.91;;;22.28;94.06
10014;BME280;45684;48.358;10.746;2022-09-09T11:42:27;96038.47;;;22.54;91.06
10014;BME280;45684;48.358;10.746;2022-09-09T11:44:56;96040.00;;;22.65;90.55
10014;BME280;45684;48.358;10.746;2022-09-09T11:47:26;96038.00;;;22.66;89.92
10014;BME280;45684;48.358;10.746;2022-09-09T11:50:22;96042.41;;;22.42;89.46
10014;BME280;45684;48.358;10.746;2022-09-09T11:53:05;96028.63;;;22.46;92.19
10014;BME280;45684;48.358;10.746;2022-09-09T11:55:34;96021.91;;;22.47;92.84
10014;BME280;45684;48.358;10.746;2022-09-09T11:58:04;96024.69;;;22.50;86.54
10014;BME280;45684;48.358;10.746;2022-09-09T12:00:36;96027.38;;;22.68;85.42
10014;BME280;45684;48.358;10.746;2022-09-09T12:03:05;96029.31;;;22.78;86.74
10014;BME280;45684;48.358;10.746;2022-09-09T12:05:37;96022.25;;;22.70;87.34
10014;BME280;45684;48.358;10.746;2022-09-09T12:08:09;96019.94;;;22.51;89.11
10014;BME280;45684;48.358;10.746;2022-09-09T12:10:39;96024.28;;;22.52;92.48
10014;BME280;45684;48.358;10.746;2022-09-09T12:13:13;96024.28;;;22.52;93.74
10014;BME280;45684;48.358;10.746;2022-09-09T12:15:48;96022.31;;;22.52;95.13
10014;BME280;45684;48.358;10.746;2022-09-09T12:18:22;96031.28;;;22.81;91.51
10014;BME280;45684;48.358;10.746;2022-09-09T12:20:57;96023.69;;;23.14;90.40
10014;BME280;45684;48.358;10.746;2022-09-09T12:23:36;96027.66;;;23.13;83.69
10014;BME280;45684;48.358;10.746;2022-09-09T12:26:26;96024.56;;;22.93;82.16
10014;BME280;45684;48.358;10.746;2022-09-09T12:29:04;96028.09;;;22.94;84.37
10014;BME280;45684;48.358;10.746;2022-09-09T12:31:41;96019.06;;;22.89;83.96
10014;BME280;45684;48.358;10.746;2022-09-09T12:34:16;96016.63;;;23.09;81.62
10014;BME280;45684;48.358;10.746;2022-09-09T12:36:46;96020.09;;;23.28;79.71
10014;BME280;45684;48.358;10.746;2022-09-09T12:39:30;96011.31;;;23.43;80.48
10014;BME280;45684;48.358;10.746;2022-09-09T12:41:59;96005.00;;;23.47;75.77
10014;BME280;45684;48.358;10.746;2022-09-09T12:44:27;96004.84;;;23.72;77.86
10014;BME280;45684;48.358;10.746;2022-09-09T12:46:58;96004.56;;;23.52;75.35
10014;BME280;45684;48.358;10.746;2022-09-09T12:49:30;96003.00;;;23.51;75.63
10014;BME280;45684;48.358;10.746;2022-09-09T12:52:02;95995.34;;;23.76;75.51
10014;BME280;45684;48.358;10.746;2022-09-09T12:54:34;95998.56;;;23.64;73.35
10014;BME280;45684;48.358;10.746;2022-09-09T12:57:03;95996.66;;;23.54;70.60
10014;BME280;45684;48.358;10.746;2022-09-09T12:59:36;95992.44;;;23.31;74.87
10014;BME280;45684;48.358;10.746;2022-09-09T13:02:20;95989.25;;;23.40;74.72
10014;BME280;45684;48.358;10.746;2022-09-09T13:04:49;95982.75;;;23.05;79.65
10014;BME280;45684;48.358;10.746;2022-09-09T13:07:17;95982.16;;;23.35;78.94
10014;BME280;45684;48.358;10.746;2022-09-09T13:09:46;95967.81;;;23.62;77.10
10014;BME280;45684;48.358;10.746;2022-09-09T13:12:17;95968.22;;;24.09;74.65
10014;BME280;45684;48.358;10.746;2022-09-09T13:14:49;95960.88;;;24.33;73.87
10014;BME280;45684;48.358;10.746;2022-09-09T13:17:21;95962.38;;;24.45;72.51